Time;durP1;ratioP1;P1;durP2;ratioP2;P2;SDS_P1;SDS_P2;PMS_P1;PMS_P2;Temp;Humidity;BMP_temperature;BMP_pressure;BME280_temperature;BME280_humidity;BME280_pressure;Samples;Min_cycle;Max_cycle;Signal;HPM_P1;HPM_P2
2022/03/12 00:02:03;;;;;;;18.63;7.13;;;;;;;-5.25;62.28;101933.88;123333;1102;104310;-78
2022/03/12 00:04:35;;;;;;;19.23;7.30;;;;;;;-5.23;62.05;101928.95;123488;1102;104348;-78
2022/03/12 00:07:09;;;;;;;21.53;7.83;;;;;;;-5.22;62.02;101940.99;123734;1102;104241;-77
2022/03/12 00:09:40;;;;;;;18.50;7.60;;;;;;;-5.22;62.08;101940.09;123785;1102;104229;-78
2022/03/12 00:12:18;;;;;;;19.73;8.00;;;;;;;-5.22;62.13;101929.85;123745;1102;104277;-78
2022/03/12 00:14:50;;;;;;;19.07;7.20;;;;;;;-5.23;62.39;101934.06;123733;1102;104240;-78
2022/03/12 00:17:25;;;;;;;16.40;6.83;;;;;;;-5.24;62.33;101927.11;123720;1102;104255;-78
2022/03/12 00:19:57;;;;;;;15.80;7.17;;;;;;;-5.25;62.43;101922.70;123796;1102;104261;-78
2022/03/12 00:22:29;;;;;;;18.60;7.07;;;;;;;-5.27;62.51;101917.44;123735;1102;104226;-78
2022/03/12 00:25:01;;;;;;;17.57;7.00;;;;;;;-5.28;62.46;101920.72;123699;1102;104319;-78
2022/03/12 00:27:34;;;;;;;16.67;7.13;;;;;;;-5.30;62.47;101911.95;123998;1102;104315;-78
2022/03/12 00:30:08;;;;;;;17.00;6.70;;;;;;;-5.31;62.63;101916.88;123741;1102;104239;-78
2022/03/12 00:32:41;;;;;;;20.82;7.03;;;;;;;-5.32;62.61;101909.92;123721;1102;104389;-78
2022/03/12 00:35:15;;;;;;;20.80;7.43;;;;;;;-5.33;63.07;101914.13;123755;1102;104364;-77
2022/03/12 00:37:46;;;;;;;18.73;7.90;;;;;;;-5.32;63.14;101907.36;123859;1102;104300;-77
2022/03/12 00:40:22;;;;;;;18.93;7.17;;;;;;;-5.34;62.23;101908.83;123803;1102;104306;-78
2022/03/12 00:42:53;;;;;;;18.57;7.33;;;;;;;-5.33;63.58;101910.63;123842;1102;104380;-78
2022/03/12 00:45:27;;;;;;;20.53;7.53;;;;;;;-5.34;63.02;101913.95;123842;1102;105380;-78
2022/03/12 00:47:58;;;;;;;21.13;7.40;;;;;;;-5.39;63.52;101915.95;123881;1102;104322;-78
2022/03/12 00:50:29;;;;;;;18.17;6.90;;;;;;;-5.39;62.90;101915.95;123823;1102;104223;-78
2022/03/12 00:53:02;;;;;;;19.97;7.10;;;;;;;-5.40;63.31;101919.22;123805;1102;104238;-78
2022/03/12 00:55:34;;;;;;;17.53;7.27;;;;;;;-5.40;62.88;101920.88;123675;1102;104379;-78
2022/03/12 00:58:06;;;;;;;17.90;6.90;;;;;;;-5.43;63.10;101919.75;123822;1102;104246;-78
2022/03/12 01:00:37;;;;;;;16.93;6.53;;;;;;;-5.44;63.16;101925.63;123733;1101;104299;-78
2022/03/12 01:03:08;;;;;;;18.15;6.90;;;;;;;-5.46;63.17;101929.61;123798;1102;104238;-78
2022/03/12 01:05:53;;;;;;;17.50;6.60;;;;;;;-5.48;62.65;101927.61;123675;1102;104335;-78
2022/03/12 01:08:27;;;;;;;18.10;7.37;;;;;;;-5.49;63.04;101938.56;123747;1102;108154;-78
2022/03/12 01:10:57;;;;;;;;;;;;;;;-5.50;62.79;101927.42;123833;1101;104686;-78
2022/03/12 01:13:29;;;;;;;16.67;6.47;;;;;;;-5.52;64.45;101923.75;123655;1102;104281;-77
2022/03/12 01:16:02;;;;;;;18.35;6.85;;;;;;;-5.52;63.81;101927.95;123785;1102;104342;-78
2022/03/12 01:18:37;;;;;;;17.60;7.00;;;;;;;-5.53;63.46;101923.55;123916;1102;104242;-78
2022/03/12 01:21:16;;;;;;;18.80;6.53;;;;;;;-5.55;63.27;101922.47;123765;1102;104643;-78
2022/03/12 01:23:50;;;;;;;18.83;6.63;;;;;;;-5.56;63.77;101926.67;123747;1101;104252;-78
2022/03/12 01:26:23;;;;;;;19.87;7.20;;;;;;;-5.60;63.56;101920.25;123806;1102;104340;-78
2022/03/12 01:28:55;;;;;;;16.45;6.83;;;;;;;-5.62;63.63;101915.70;123853;1102;104306;-78
2022/03/12 01:31:28;;;;;;;15.97;7.10;;;;;;;-5.63;63.48;101935.22;123651;1102;104849;-78
2022/03/12 01:33:59;;;;;;;16.70;6.73;;;;;;;-5.65;63.33;101928.11;123658;1102;104267;-78
2022/03/12 01:36:32;;;;;;;16.97;5.90;;;;;;;-5.68;63.15;101927.73;123748;1102;104287;-78
2022/03/12 01:39:03;;;;;;;19.17;6.73;;;;;;;-5.70;63.57;101926.60;123848;1102;104358;-78
2022/03/12 01:41:40;;;;;;;14.63;6.03;;;;;;;-5.72;64.02;101920.39;123763;1102;104200;-78
2022/03/12 01:44:15;;;;;;;18.43;6.00;;;;;;;-5.73;64.17;101931.34;123771;1102;105477;-78
2022/03/12 01:46:48;;;;;;;18.60;6.50;;;;;;;-5.73;64.02;101926.22;123772;1102;104245;-78
2022/03/12 01:49:23;;;;;;;16.90;6.50;;;;;;;-5.74;63.38;101924.42;123760;1102;104235;-78
2022/03/12 01:51:55;;;;;;;14.50;6.13;;;;;;;-5.75;63.49;101931.15;123956;1101;104249;-78
2022/03/12 01:54:31;;;;;;;16.47;6.07;;;;;;;-5.76;63.53;101929.34;123811;1102;104294;-78
2022/03/12 01:57:04;;;;;;;14.68;6.10;;;;;;;-5.79;63.71;101934.08;123759;1102;104256;-77
2022/03/12 01:59:35;;;;;;;17.53;6.37;;;;;;;-5.83;63.60;101935.35;123774;1102;107063;-77
2022/03/12 02:02:13;;;;;;;17.40;6.05;;;;;;;-5.84;63.36;101941.17;123837;1102;104222;-78
2022/03/12 02:04:49;;;;;;;15.13;5.80;;;;;;;-5.85;63.18;101949.56;123785;1102;104239;-78
2022/03/12 02:07:22;;;;;;;15.53;6.10;;;;;;;-5.85;63.40;101940.98;123798;1102;104294;-78
2022/03/12 02:09:54;;;;;;;18.07;6.07;;;;;;;-5.85;63.70;101941.89;123718;1102;118983;-78
2022/03/12 02:12:26;;;;;;;15.37;5.97;;;;;;;-5.86;63.35;101940.09;123732;1101;104354;-78
2022/03/12 02:14:57;;;;;;;15.97;5.57;;;;;;;-5.86;63.68;101939.14;123796;1102;104270;-78
2022/03/12 02:17:28;;;;;;;15.50;6.07;;;;;;;-5.87;63.67;101938.24;123690;1102;104267;-78
2022/03/12 02:20:01;;;;;;;13.07;5.50;;;;;;;-5.88;63.14;101936.40;123691;1102;104239;-78
2022/03/12 02:22:34;;;;;;;16.43;6.07;;;;;;;-5.89;63.30;101934.59;123821;1102;104296;-78
2022/03/12 02:25:07;;;;;;;12.63;5.30;;;;;;;-5.89;63.71;101944.81;123771;1102;104238;-78
2022/03/12 02:27:39;;;;;;;13.07;5.20;;;;;;;-5.90;63.32;101940.42;123779;1102;104242;-78
2022/03/12 02:30:12;;;;;;;15.03;5.37;;;;;;;-5.89;62.86;101946.44;123770;1102;110649;-78
2022/03/12 02:32:44;;;;;;;13.93;5.50;;;;;;;-5.92;63.87;101946.99;123775;1102;104194;-77
2022/03/12 02:35:19;;;;;;;14.00;5.53;;;;;;;-5.94;63.71;101933.08;123810;1102;104341;-77
2022/03/12 02:37:52;;;;;;;11.60;4.20;;;;;;;-5.98;62.85;101934.39;123599;1102;104293;-78
2022/03/12 02:40:23;;;;;;;16.93;5.57;;;;;;;-6.01;62.88;101944.23;123743;1102;104313;-78
2022/03/12 02:42:57;;;;;;;12.07;5.43;;;;;;;-6.04;63.53;101945.50;123685;1102;104310;-78
2022/03/12 02:45:29;;;;;;;15.17;5.73;;;;;;;-6.08;63.14;101935.61;123616;1102;104217;-78
2022/03/12 02:48:01;;;;;;;14.07;5.07;;;;;;;-6.09;63.51;101943.98;123657;1102;104412;-78
2022/03/12 02:50:36;;;;;;;17.13;5.23;;;;;;;-6.10;63.56;101947.29;123589;1102;104226;-78
2022/03/12 02:53:08;;;;;;;14.17;4.80;;;;;;;-6.13;62.91;101944.35;123716;1102;104287;-78
2022/03/12 02:55:43;;;;;;;14.95;5.20;;;;;;;-6.16;63.00;101948.33;123694;1102;104200;-78
2022/03/12 02:58:16;;;;;;;18.27;5.90;;;;;;;-6.16;62.89;101947.42;123763;1102;104226;-78
2022/03/12 03:00:47;;;;;;;12.33;5.53;;;;;;;-6.18;63.29;101943.78;123839;1102;104357;-78
2022/03/12 03:03:18;;;;;;;19.55;5.80;;;;;;;-6.21;63.59;101957.08;123570;1102;104268;-78
2022/03/12 03:05:54;;;;;;;15.57;5.50;;;;;;;-6.23;63.21;101949.92;123768;1102;104440;-78
2022/03/12 03:08:28;;;;;;;13.10;5.20;;;;;;;-6.26;62.98;101955.59;123601;1102;104267;-77
2022/03/12 03:10:59;;;;;;;15.50;5.83;;;;;;;-6.28;62.74;101946.80;123642;1102;104346;-78
2022/03/12 03:13:39;;;;;;;14.53;5.67;;;;;;;-6.29;63.49;101960.31;123572;1102;104364;-78
2022/03/12 03:16:20;;;;;;;15.33;5.73;;;;;;;-6.32;62.66;101955.72;123618;1102;104741;-78
2022/03/12 03:18:53;;;;;;;15.00;6.00;;;;;;;-6.34;63.52;101953.72;123584;1102;104284;-78
2022/03/12 03:21:27;;;;;;;16.48;5.83;;;;;;;-6.37;63.52;101950.78;123727;1102;110053;-78
2022/03/12 03:24:00;;;;;;;15.08;5.75;;;;;;;-6.39;62.65;101954.75;123533;1102;104248;-78
2022/03/12 03:26:56;;;;;;;16.77;6.50;;;;;;;-6.42;63.46;101952.75;123702;1102;104348;-78
2022/03/12 03:29:29;;;;;;;16.67;6.10;;;;;;;-6.46;63.31;101947.06;123469;1101;104296;-77
2022/03/12 03:32:02;;;;;;;14.15;4.90;;;;;;;-6.48;62.33;101945.93;123521;1102;104319;-79
2022/03/12 03:34:36;;;;;;;18.10;6.63;;;;;;;-6.50;62.60;101950.84;123489;1102;104249;-78
2022/03/12 03:37:10;;;;;;;18.73;6.63;;;;;;;-6.53;62.43;101959.06;123635;1102;104303;-79
2022/03/12 03:39:43;;;;;;;18.48;7.22;;;;;;;-6.56;62.83;101953.56;123642;1102;104251;-79
2022/03/12 03:42:21;;;;;;;19.03;6.83;;;;;;;-6.59;63.59;101953.17;123560;1102;104300;-79
2022/03/12 03:44:57;;;;;;;19.43;7.40;;;;;;;-6.61;63.31;101957.14;123768;1102;104752;-79
2022/03/12 03:47:30;;;;;;;20.60;7.00;;;;;;;-6.63;63.57;101960.25;123557;1102;104280;-79
2022/03/12 03:50:02;;;;;;;22.93;7.83;;;;;;;-6.65;63.79;101966.77;123554;1102;104296;-77
2022/03/12 03:52:34;;;;;;;19.50;6.90;;;;;;;-6.65;63.39;101962.61;123627;1102;104360;-79
2022/03/12 03:55:08;;;;;;;19.03;7.23;;;;;;;-6.68;62.58;101972.43;123632;1102;104705;-78
2022/03/12 03:57:39;;;;;;;15.57;5.53;;;;;;;-6.70;62.82;101976.40;123678;1102;104207;-78
2022/03/12 04:00:14;;;;;;;22.50;7.07;;;;;;;-6.72;63.00;101975.30;123594;1102;104271;-78
2022/03/12 04:02:45;;;;;;;17.97;6.37;;;;;;;-6.75;63.40;101980.02;123735;1102;104313;-78
2022/03/12 04:05:16;;;;;;;19.17;6.90;;;;;;;-6.77;62.99;101976.36;123745;1102;104338;-78
2022/03/12 04:07:49;;;;;;;17.97;6.87;;;;;;;-6.80;63.00;101976.88;123561;1102;104273;-78
2022/03/12 04:10:20;;;;;;;18.00;6.97;;;;;;;-6.84;62.53;101978.84;123567;1102;104265;-78
2022/03/12 04:12:52;;;;;;;16.97;6.73;;;;;;;-6.87;63.71;101976.83;123570;1102;104242;-78
2022/03/12 04:15:24;;;;;;;17.73;6.53;;;;;;;-6.89;62.43;101981.73;123460;1102;104345;-78
2022/03/12 04:17:57;;;;;;;17.97;6.30;;;;;;;-6.91;63.01;101978.05;123572;1102;104366;-78
2022/03/12 04:20:31;;;;;;;15.63;6.53;;;;;;;-6.93;63.08;101989.70;123631;1102;104268;-78
2022/03/12 04:23:02;;;;;;;15.30;5.97;;;;;;;-6.93;63.27;101986.25;123478;1102;104284;-79
2022/03/12 04:25:35;;;;;;;14.83;5.43;;;;;;;-6.96;63.04;101989.31;123643;1102;104363;-78
2022/03/12 04:28:08;;;;;;;15.93;5.90;;;;;;;-6.95;63.11;101995.32;123564;1102;104271;-78
2022/03/12 04:30:41;;;;;;;16.57;6.13;;;;;;;-6.94;62.57;101994.61;123597;1102;104445;-78
2022/03/12 04:33:14;;;;;;;;;;;;;;;-6.95;63.17;102000.42;123535;1102;104823;-79
2022/03/12 04:35:46;;;;;;;15.37;5.60;;;;;;;-6.97;62.69;102007.88;123580;1102;104248;-78
2022/03/12 04:38:19;;;;;;;12.80;5.67;;;;;;;-6.99;62.47;102004.23;123533;1101;104380;-78
2022/03/12 04:40:51;;;;;;;11.87;4.70;;;;;;;-7.00;63.73;102010.04;123631;1102;104277;-78
2022/03/12 04:43:28;;;;;;;16.13;5.43;;;;;;;-7.01;63.17;102004.73;123700;1102;104303;-79
2022/03/12 04:46:02;;;;;;;13.27;5.80;;;;;;;-7.01;63.08;102008.23;123815;1102;104319;-79
2022/03/12 04:48:34;;;;;;;18.13;6.00;;;;;;;-7.00;62.51;102010.04;123936;1102;104239;-77
2022/03/12 04:51:06;;;;;;;15.50;5.47;;;;;;;-7.00;63.26;102011.69;123642;1102;104271;-77
2022/03/12 04:53:39;;;;;;;14.87;5.63;;;;;;;-7.00;63.19;102015.14;123731;1102;104248;-77
2022/03/12 04:56:11;;;;;;;16.63;5.63;;;;;;;-6.97;63.23;102020.64;123686;1102;104335;-77
2022/03/12 04:58:45;;;;;;;14.97;5.63;;;;;;;-6.96;63.22;102017.38;123628;1102;104178;-76
2022/03/12 05:01:19;;;;;;;13.20;5.30;;;;;;;-6.92;62.56;102024.73;123713;1102;104251;-77
2022/03/12 05:03:52;;;;;;;15.30;5.57;;;;;;;-6.89;62.72;102027.67;123736;1102;104227;-77
2022/03/12 05:06:27;;;;;;;19.47;6.10;;;;;;;-6.84;62.45;102030.79;123719;1102;104267;-76
2022/03/12 05:08:59;;;;;;;15.97;6.37;;;;;;;-6.80;62.17;102029.58;123979;1102;104367;-78
2022/03/12 05:11:32;;;;;;;18.07;6.13;;;;;;;-6.76;62.50;102034.33;123723;1102;104348;-77
2022/03/12 05:14:04;;;;;;;14.95;4.80;;;;;;;-6.71;63.15;102033.31;123811;1102;104242;-77
2022/03/12 05:16:36;;;;;;;16.50;5.60;;;;;;;-6.68;62.43;102038.81;123908;1102;104380;-77
2022/03/12 05:19:07;;;;;;;14.80;5.90;;;;;;;-6.64;62.40;102035.91;123974;1102;104402;-77
2022/03/12 05:21:38;;;;;;;15.47;6.03;;;;;;;-6.57;62.54;102042.75;123953;1102;104290;-78
2022/03/12 05:24:11;;;;;;;15.87;5.57;;;;;;;-6.53;62.92;102045.89;123924;1102;104411;-78
2022/03/12 05:26:45;;;;;;;11.80;4.70;;;;;;;-6.46;62.95;102042.47;123948;1102;104485;-77
2022/03/12 05:29:18;;;;;;;17.33;5.93;;;;;;;-6.39;63.14;102055.31;124036;1102;104238;-77
2022/03/12 05:31:52;;;;;;;20.80;6.47;;;;;;;-6.33;61.70;102048.44;123854;1102;104370;-77
2022/03/12 05:34:24;;;;;;;26.33;8.77;;;;;;;-6.23;61.77;102052.12;123785;1102;104614;-77
2022/03/12 05:36:57;;;;;;;23.63;8.43;;;;;;;-6.15;62.18;102048.93;123892;1102;104236;-77
2022/03/12 05:39:29;;;;;;;27.30;8.53;;;;;;;-6.08;61.28;102061.74;123836;1102;104277;-77
2022/03/12 05:42:00;;;;;;;17.97;6.00;;;;;;;-6.00;61.42;102049.93;123829;1102;104194;-77
2022/03/12 05:44:32;;;;;;;13.50;4.80;;;;;;;-5.92;61.45;102056.92;123719;1102;104965;-78
2022/03/12 05:47:09;;;;;;;14.55;4.80;;;;;;;-5.85;60.91;102059.50;123697;1102;104392;-78
2022/03/12 05:49:42;;;;;;;10.83;4.40;;;;;;;-5.78;60.87;102049.33;123730;1102;104341;-78
2022/03/12 05:52:14;;;;;;;9.37;3.97;;;;;;;-5.69;60.54;102054.66;123867;1102;104405;-78
2022/03/12 05:54:48;;;;;;;16.57;5.23;;;;;;;-5.62;60.83;102051.25;123868;1102;104730;-78
2022/03/12 05:57:21;;;;;;;13.20;4.87;;;;;;;-5.56;62.18;102049.45;124362;1102;104202;-78
2022/03/12 05:59:55;;;;;;;14.15;5.12;;;;;;;-5.46;61.33;102057.52;123635;1103;104271;-78
2022/03/12 06:02:28;;;;;;;15.90;5.08;;;;;;;-5.39;61.06;102053.17;123838;1102;104312;-78
2022/03/12 06:04:59;;;;;;;16.00;4.83;;;;;;;-5.31;61.58;102065.29;123995;1102;104235;-78
2022/03/12 06:07:35;;;;;;;10.48;4.33;;;;;;;-5.25;61.07;102059.28;124050;1102;104248;-79
2022/03/12 06:10:09;;;;;;;14.77;4.20;;;;;;;-5.16;61.08;102054.35;124017;1102;104264;-79
2022/03/12 06:12:44;;;;;;;10.13;4.27;;;;;;;-5.03;60.59;102058.42;123948;1102;104242;-78
2022/03/12 06:15:18;;;;;;;9.43;4.07;;;;;;;-4.97;59.60;102054.05;123898;1102;104325;-79
2022/03/12 06:17:51;;;;;;;10.07;4.10;;;;;;;-4.87;60.46;102046.77;123879;1102;104338;-78
2022/03/12 06:20:23;;;;;;;11.37;4.43;;;;;;;-4.76;60.53;102058.33;124070;1102;104224;-78
2022/03/12 06:22:57;;;;;;;10.20;3.87;;;;;;;-4.68;60.07;102051.57;124015;1102;104166;-78
2022/03/12 06:25:30;;;;;;;13.98;4.42;;;;;;;-4.63;59.80;102059.06;124083;1102;104274;-78
2022/03/12 06:28:02;;;;;;;11.73;4.47;;;;;;;-4.56;59.13;102053.95;124001;1102;104373;-79
2022/03/12 06:30:35;;;;;;;11.67;4.27;;;;;;;-4.44;58.89;102049.41;124125;1102;104284;-78
2022/03/12 06:33:07;;;;;;;17.67;4.77;;;;;;;-4.31;59.67;102051.78;123977;1102;104333;-79
2022/03/12 06:35:41;;;;;;;13.70;4.20;;;;;;;-4.16;60.23;102044.98;124306;1102;104249;-79
2022/03/12 06:38:14;;;;;;;18.60;4.83;;;;;;;-4.00;60.68;102045.18;124014;1102;104239;-78
2022/03/12 06:40:47;;;;;;;14.03;4.20;;;;;;;-3.84;60.34;102041.11;124107;1102;104284;-79
2022/03/12 06:43:18;;;;;;;11.03;4.20;;;;;;;-3.70;59.10;102049.52;124115;1102;104357;-78
2022/03/12 06:45:51;;;;;;;15.17;4.37;;;;;;;-3.69;58.99;102039.44;124463;1102;104226;-79
2022/03/12 06:48:24;;;;;;;19.23;5.20;;;;;;;-3.56;59.42;102048.56;124549;1102;104262;-79
2022/03/12 06:50:56;;;;;;;12.87;4.50;;;;;;;-3.49;58.33;102048.52;124286;1102;104207;-79
2022/03/12 06:53:28;;;;;;;14.17;4.10;;;;;;;-3.40;58.78;102044.46;124235;1102;104360;-79
2022/03/12 06:56:00;;;;;;;9.33;3.60;;;;;;;-3.31;57.24;102053.23;124110;1102;104638;-78
2022/03/12 06:58:34;;;;;;;11.50;4.05;;;;;;;-3.17;58.31;102049.69;124068;1102;104296;-78
2022/03/12 07:01:06;;;;;;;11.08;4.22;;;;;;;-3.00;58.52;102050.73;124191;1102;104271;-78
2022/03/12 07:03:38;;;;;;;14.37;3.77;;;;;;;-2.92;57.56;102050.84;124028;1102;104386;-77
2022/03/12 07:06:10;;;;;;;9.20;3.20;;;;;;;-2.78;58.37;102054.08;123903;1102;104351;-78
2022/03/12 07:08:42;;;;;;;11.37;4.00;;;;;;;-2.70;55.41;102048.14;123942;1102;104357;-78
2022/03/12 07:11:15;;;;;;;9.57;3.67;;;;;;;-2.63;56.69;102048.11;123880;1102;104224;-79
2022/03/12 07:13:50;;;;;;;11.95;3.90;;;;;;;-2.55;57.69;102046.41;124083;1102;104261;-79
2022/03/12 07:16:23;;;;;;;9.40;3.63;;;;;;;-2.46;56.21;102049.08;124006;1102;104274;-79
2022/03/12 07:18:57;;;;;;;13.03;4.30;;;;;;;-2.33;57.12;102039.44;124184;1102;104290;-79
2022/03/12 07:21:30;;;;;;;11.07;4.00;;;;;;;-2.18;57.92;102041.15;124120;1102;104264;-79
2022/03/12 07:24:02;;;;;;;11.60;4.10;;;;;;;-2.06;55.78;102033.86;124177;1102;104271;-78
2022/03/12 07:26:33;;;;;;;13.00;3.80;;;;;;;-2.00;56.72;102037.11;123953;1102;104318;-78
2022/03/12 07:29:06;;;;;;;11.80;4.23;;;;;;;-1.92;56.10;102040.52;124316;1102;104277;-79
2022/03/12 07:31:39;;;;;;;14.77;5.07;;;;;;;-1.81;57.07;102045.22;123994;1102;104361;-79
2022/03/12 07:34:12;;;;;;;12.17;4.70;;;;;;;-1.69;56.50;102039.58;124002;1102;104342;-79
2022/03/12 07:36:44;;;;;;;10.20;4.00;;;;;;;-1.62;55.90;102031.79;123959;1102;104197;-78
2022/03/12 07:39:15;;;;;;;15.30;4.63;;;;;;;-1.53;56.87;102040.48;123969;1102;104323;-78
2022/03/12 07:41:50;;;;;;;11.47;4.23;;;;;;;-1.45;55.36;102041.31;123929;1102;104424;-78
2022/03/12 07:44:22;;;;;;;11.12;3.47;;;;;;;-1.44;53.25;102038.00;124001;1102;104171;-79
2022/03/12 07:46:53;;;;;;;10.17;3.60;;;;;;;-1.39;53.92;102038.50;124111;1102;104380;-78
2022/03/12 07:49:28;;;;;;;16.03;4.47;;;;;;;-1.36;55.31;102042.31;123962;1102;104223;-78
2022/03/12 07:52:01;;;;;;;9.63;4.00;;;;;;;-1.30;53.53;102039.48;123730;1102;104224;-79
2022/03/12 07:54:33;;;;;;;11.73;4.33;;;;;;;-1.19;54.08;102038.97;123965;1102;104345;-78
2022/03/12 07:57:05;;;;;;;12.40;4.60;;;;;;;-1.13;53.97;102042.20;123888;1102;104293;-79
2022/03/12 07:59:37;;;;;;;9.53;4.23;;;;;;;-1.06;54.24;102050.59;123960;1102;104363;-78
2022/03/12 08:02:09;;;;;;;12.30;3.93;;;;;;;-1.08;51.13;102040.13;123893;1102;104268;-79
2022/03/12 08:04:42;;;;;;;10.87;3.60;;;;;;;-1.01;50.50;102051.98;124063;1102;104245;-79
2022/03/12 08:07:14;;;;;;;10.00;3.70;;;;;;;-0.99;53.03;102043.68;123784;1102;104303;-78
2022/03/12 08:09:48;;;;;;;14.17;4.47;;;;;;;-0.97;53.98;102039.59;124031;1102;104306;-78
2022/03/12 08:12:21;;;;;;;11.47;4.33;;;;;;;-0.92;52.20;102035.86;123882;1102;104220;-78
2022/03/12 08:14:51;;;;;;;;;;;;;;;-0.82;53.02;102042.89;123939;1102;104347;-80
2022/03/12 08:17:22;;;;;;;;;;;;;;;-0.74;52.52;102035.97;124848;1101;104198;-79
2022/03/12 08:19:54;;;;;;;;;;;;;;;-0.64;51.52;102030.11;124503;1102;104319;-79
2022/03/12 08:22:27;;;;;;;;;;;;;;;-0.58;51.47;102026.53;124538;1102;104258;-79
2022/03/12 08:24:58;;;;;;;;;;;;;;;-0.47;52.54;102022.47;124671;1102;104395;-80
2022/03/12 08:27:28;;;;;;;;;;;;;;;-0.40;51.99;102026.63;124446;1102;111956;-79
2022/03/12 08:30:00;;;;;;;;;;;;;;;-0.37;49.85;102016.63;125218;1102;104255;-79
2022/03/12 08:32:34;;;;;;;;;;;;;;;-0.28;50.68;102014.06;124353;1102;104315;-77
2022/03/12 08:35:12;;;;;;;;;;;;;;;-0.15;52.26;102013.68;124872;1102;104187;-78
2022/03/12 08:37:47;;;;;;;;;;;;;;;-0.08;49.94;102016.11;124508;1101;104309;-78
2022/03/12 08:40:22;;;;;;;;;;;;;;;-0.06;51.40;102010.37;124389;1102;104255;-77
2022/03/12 08:42:53;;;;;;;;;;;;;;;0.01;51.52;101998.98;124984;1102;104156;-78
2022/03/12 08:45:24;;;;;;;;;;;;;;;0.12;50.87;102015.57;124714;1102;104265;-78
2022/03/12 08:47:57;;;;;;;;;;;;;;;0.07;45.35;102012.52;124919;1102;107129;-78
2022/03/12 08:50:28;;;;;;;;;;;;;;;0.13;49.50;102007.98;124613;1102;104319;-78
2022/03/12 08:53:00;;;;;;;;;;;;;;;0.18;48.71;102011.03;125201;1102;102792;-78
2022/03/12 08:55:32;;;;;;;;;;;;;;;0.24;49.42;102010.75;124394;1102;104192;-78
2022/03/12 08:58:05;;;;;;;;;;;;;;;0.26;49.09;102004.97;124599;1102;104232;-78
2022/03/12 09:00:38;;;;;;;;;;;;;;;0.34;49.33;102010.91;124841;1102;104370;-79
2022/03/12 09:03:09;;;;;;;;;;;;;;;0.39;47.33;101991.64;124119;1102;104334;-78
2022/03/12 09:05:43;;;;;;;;;;;;;;;0.56;48.42;101990.71;124763;1102;104271;-78
2022/03/12 09:08:23;;;;;;;;;;;;;;;0.68;49.83;101997.09;125151;1102;101942;-79
2022/03/12 09:10:55;;;;;;;;;;;;;;;0.76;49.54;101991.80;124676;1102;104262;-78
2022/03/12 09:13:25;;;;;;;;;;;;;;;0.82;47.87;101976.89;124627;1102;104242;-78
2022/03/12 09:15:59;;;;;;;;;;;;;;;0.89;48.81;101994.84;124005;1102;104807;-77
2022/03/12 09:18:29;;;;;;;;;;;;;;;0.85;48.28;101984.95;124200;1102;112101;-77
2022/03/12 09:21:00;;;;;;;;;;;;;;;0.88;49.03;101980.08;123934;1102;104300;-78
2022/03/12 09:23:30;;;;;;;;;;;;;;;0.91;48.43;101975.21;124253;1102;104300;-78
2022/03/12 09:26:01;;;;;;;;;;;;;;;0.99;48.88;101970.80;124207;1102;102254;-78
2022/03/12 09:28:33;;;;;;;;;;;;;;;1.08;49.20;101972.59;124057;1102;104386;-78
2022/03/12 09:31:09;;;;;;;;;;;;;;;1.15;46.70;101963.75;123850;1102;104268;-78
2022/03/12 09:33:39;;;;;;;;;;;;;;;1.16;47.18;101967.27;123815;1102;104252;-78
2022/03/12 09:36:09;;;;;;;;;;;;;;;1.10;46.05;101961.50;123781;1102;104412;-78
2022/03/12 09:38:39;;;;;;;;;;;;;;;1.10;47.33;101969.25;123657;1102;104291;-77
2022/03/12 09:41:09;;;;;;;;;;;;;;;1.11;46.76;101960.72;123536;1102;104268;-77
2022/03/12 09:43:38;;;;;;;;;;;;;;;1.20;46.68;101964.19;123519;1102;104255;-77
2022/03/12 09:46:09;;;;;;;;;;;;;;;1.24;47.11;101962.05;123713;1102;104398;-78
2022/03/12 09:48:39;;;;;;;;;;;;;;;1.27;48.35;101953.69;123708;1102;104466;-78
2022/03/12 09:51:09;;;;;;;;;;;;;;;1.19;45.88;101944.29;123608;1102;104227;-78
2022/03/12 09:53:39;;;;;;;;;;;;;;;1.27;46.43;101942.44;123561;1102;104287;-78
2022/03/12 09:56:10;;;;;;;;;;;;;;;1.40;48.43;101936.00;123565;1102;104290;-78
2022/03/12 09:58:41;;;;;;;;;;;;;;;1.42;45.67;101941.33;123493;1101;104623;-78
2022/03/12 10:01:12;;;;;;;;;;;;;;;1.48;46.41;101936.73;123592;1102;104334;-78
2022/03/12 10:03:43;;;;;;;;;;;;;;;1.48;44.73;101934.15;123454;1102;104345;-77
2022/03/12 10:06:15;;;;;;;;;;;;;;;1.50;47.05;101929.13;123599;1101;104317;-77
2022/03/12 10:08:45;;;;;;;;;;;;;;;1.55;46.96;101925.28;123496;1102;104246;-78
2022/03/12 10:11:18;;;;;;;;;;;;;;;1.60;46.49;101924.93;123531;1102;104399;-77
2022/03/12 10:13:48;;;;;;;;;;;;;;;1.69;46.14;101922.31;123421;1102;104633;-78
2022/03/12 10:16:21;;;;;;;;;;;;;;;1.69;43.23;101911.96;123415;1102;104395;-77
2022/03/12 10:18:51;;;;;;;;;;;;;;;1.74;46.84;101917.57;123439;1102;104348;-77
2022/03/12 10:21:21;;;;;;;;;;;;;;;1.77;46.62;101899.73;123473;1100;104261;-78
2022/03/12 10:23:50;;;;;;;;;;;;;;;1.77;45.74;101900.64;123360;1102;104277;-78
2022/03/12 10:26:20;;;;;;;;;;;;;;;1.84;45.90;101893.45;123355;1102;104348;-78
2022/03/12 10:28:50;;;;;;;;;;;;;;;1.80;44.64;101890.57;123388;1102;104245;-78
2022/03/12 10:31:21;;;;;;;;;;;;;;;1.85;44.80;101887.52;123389;1102;104284;-78
2022/03/12 10:33:51;;;;;;;;;;;;;;;1.85;43.06;101887.52;123375;1102;104648;-77
2022/03/12 10:36:20;;;;;;;;;;;;;;;1.87;44.09;101876.55;123442;1102;104200;-77
2022/03/12 10:38:51;;;;;;;;;;;;;;;1.91;43.78;101873.45;123283;1102;104351;-78
2022/03/12 10:41:29;;;;;;;;;;;;;;;1.96;43.88;101866.11;123255;1102;104269;-78
2022/03/12 10:44:00;;;;;;;;;;;;;;;2.03;44.66;101862.42;123459;1102;104360;-77
2022/03/12 10:46:30;;;;;;;;;;;;;;;2.08;44.67;101849.11;123454;1102;104265;-77
2022/03/12 10:49:03;;;;;;;;;;;;;;;2.12;44.09;101853.81;123227;1102;104373;-77
2022/03/12 10:51:34;;;;;;;;;;;;;;;2.19;43.78;101851.78;123406;1102;104243;-77
2022/03/12 10:54:07;;;;;;;;;;;;;;;2.23;43.48;101854.78;123294;1102;104351;-78
2022/03/12 10:56:43;;;;;;;;;;;;;;;2.17;42.63;101838.69;123438;1102;104341;-78
2022/03/12 10:59:17;;;;;;;;;;;;;;;2.29;44.04;101841.46;123405;1102;104252;-77
2022/03/12 11:01:50;;;;;;;;;;;;;;;2.38;44.36;101823.27;123476;1102;104224;-77
2022/03/12 11:04:22;;;;;;;;;;;;;;;2.40;42.70;101830.41;123488;1102;104271;-77
2022/03/12 11:06:54;;;;;;;;;;;;;;;2.44;42.85;101832.48;123434;1102;104613;-77
2022/03/12 11:09:34;;;;;;;;;;;;;;;2.43;43.72;101820.32;123366;1102;104270;-77
2022/03/12 11:12:05;;;;;;;;;;;;;;;2.46;42.89;101810.23;123270;1102;104348;-78
2022/03/12 11:14:36;;;;;;;;;;;;;;;2.54;42.71;101817.76;123285;1102;104293;-77
2022/03/12 11:17:09;;;;;;;;;;;;;;;2.59;42.31;101816.51;123251;1102;104290;-77
2022/03/12 11:19:48;;;;;;;;;;;;;;;2.59;43.46;101809.63;123212;1102;104301;-77
2022/03/12 11:22:18;;;;;;;;;;;;;;;2.65;44.69;101801.47;123265;1102;104245;-77
2022/03/12 11:24:51;;;;;;;;;;;;;;;2.73;42.93;101795.30;123285;1102;104264;-78
2022/03/12 11:27:32;;;;;;;;;;;;;;;2.71;39.15;101799.42;123161;1102;104354;-77
2022/03/12 11:30:04;;;;;;;;;;;;;;;2.62;36.98;101794.36;123278;1102;104424;-78
2022/03/12 11:32:36;;;;;;;;;;;;;;;2.74;40.52;101789.32;123159;1101;104357;-78
2022/03/12 11:35:15;;;;;;;;;;;;;;;2.76;41.71;101784.27;123159;1102;104355;-77
2022/03/12 11:37:45;;;;;;;;;;;;;;;2.76;41.45;101772.23;123201;1102;104630;-77
2022/03/12 11:40:18;;;;;;;;;;;;;;;2.83;42.96;101771.08;123209;1102;104313;-78
2022/03/12 11:42:48;;;;;;;;;;;;;;;2.80;41.72;101771.71;123359;1102;104668;-78
2022/03/12 11:45:20;;;;;;;;;;;;;;;2.83;41.14;101758.12;123377;1102;104374;-78
2022/03/12 11:47:50;;;;;;;;;;;;;;;2.85;39.82;101759.15;123430;1102;104280;-77
2022/03/12 11:50:24;;;;;;;;;;;;;;;2.92;41.09;101763.20;123386;1102;104351;-78
2022/03/12 11:52:54;;;;;;;;;;;;;;;2.96;40.60;101755.83;123402;1102;104301;-77